Senoia, Georgia
Current Conditions -  °F | °C
As of 6:53 AM on Friday 21 Nov 2014 (Local Time) from KFFC Reporting Station
Haze Haze  
Wind Chill: 30°   Ceiling: Unl
Heat Index: 30°   Visibility: 5mi
Dew Point: 28°   Wind: 0mph
Humidity: 92%   Direction: NA
Pressure: 30.34"   Gusts: NA
Location:  33.3°N, 84.55°W
Report Text: KFFC 211153Z AUTO 00000KT 5SM BR CLR M01/M02 A3034 RMK AO2 SLP282 T10111022 10017 21011 53013
Loading
Personal Weather Stations






























Interactive Weather Map New forecast layout! Learn more

10-Day Weather Forecast

Advertisements
Track Severe Weather on mobile